sensor_id;sensor_type;location;lat;lon;timestamp;temperature;humidity
14016;DHT22;7083;48.854;9.158;2022-12-07T00:01:20;3.60;99.90
14016;DHT22;7083;48.854;9.158;2022-12-07T00:03:48;3.60;99.90
14016;DHT22;7083;48.854;9.158;2022-12-07T00:06:16;3.60;99.90
14016;DHT22;7083;48.854;9.158;2022-12-07T00:08:43;3.70;99.90
14016;DHT22;7083;48.854;9.158;2022-12-07T00:11:12;3.60;99.90
14016;DHT22;7083;48.854;9.158;2022-12-07T00:13:39;3.60;99.90
14016;DHT22;7083;48.854;9.158;2022-12-07T00:16:09;3.50;99.90
14016;DHT22;7083;48.854;9.158;2022-12-07T00:18:37;3.50;99.90
14016;DHT22;7083;48.854;9.158;2022-12-07T00:21:05;3.50;99.90
14016;DHT22;7083;48.854;9.158;2022-12-07T00:23:32;3.50;99.90
14016;DHT22;7083;48.854;9.158;2022-12-07T00:26:03;3.50;99.90
14016;DHT22;7083;48.854;9.158;2022-12-07T00:28:30;3.60;99.90
14016;DHT22;7083;48.854;9.158;2022-12-07T00:31:01;3.50;99.90
14016;DHT22;7083;48.854;9.158;2022-12-07T00:33:27;3.50;99.90
14016;DHT22;7083;48.854;9.158;2022-12-07T00:35:56;3.50;99.90
14016;DHT22;7083;48.854;9.158;2022-12-07T00:38:24;3.40;99.90
14016;DHT22;7083;48.854;9.158;2022-12-07T00:40:55;3.40;99.90
14016;DHT22;7083;48.854;9.158;2022-12-07T00:43:22;3.40;99.90
14016;DHT22;7083;48.854;9.158;2022-12-07T00:45:49;3.30;99.90
14016;DHT22;7083;48.854;9.158;2022-12-07T00:48:15;3.30;99.90
14016;DHT22;7083;48.854;9.158;2022-12-07T00:50:42;3.30;99.90
14016;DHT22;7083;48.854;9.158;2022-12-07T00:53:10;3.20;99.90
14016;DHT22;7083;48.854;9.158;2022-12-07T00:55:37;3.20;99.90
14016;DHT22;7083;48.854;9.158;2022-12-07T00:58:04;3.20;99.90
14016;DHT22;7083;48.854;9.158;2022-12-07T01:00:31;3.10;99.90
14016;DHT22;7083;48.854;9.158;2022-12-07T01:02:58;3.10;99.90
14016;DHT22;7083;48.854;9.158;2022-12-07T01:05:25;3.10;99.90
14016;DHT22;7083;48.854;9.158;2022-12-07T01:07:52;3.10;99.90
14016;DHT22;7083;48.854;9.158;2022-12-07T01:10:20;3.10;99.90
14016;DHT22;7083;48.854;9.158;2022-12-07T01:12:46;3.10;99.90
14016;DHT22;7083;48.854;9.158;2022-12-07T01:15:13;3.10;99.90
14016;DHT22;7083;48.854;9.158;2022-12-07T01:17:40;3.10;99.90
14016;DHT22;7083;48.854;9.158;2022-12-07T01:20:08;3.10;99.90
14016;DHT22;7083;48.854;9.158;2022-12-07T01:22:36;3.10;99.90
14016;DHT22;7083;48.854;9.158;2022-12-07T01:25:04;3.10;99.90
14016;DHT22;7083;48.854;9.158;2022-12-07T01:27:32;3.10;99.90
14016;DHT22;7083;48.854;9.158;2022-12-07T01:29:59;3.10;99.90
14016;DHT22;7083;48.854;9.158;2022-12-07T01:32:26;3.00;99.90
14016;DHT22;7083;48.854;9.158;2022-12-07T01:34:52;3.00;99.90
14016;DHT22;7083;48.854;9.158;2022-12-07T01:37:19;3.00;99.90
14016;DHT22;7083;48.854;9.158;2022-12-07T01:39:48;3.00;99.90
14016;DHT22;7083;48.854;9.158;2022-12-07T01:42:15;3.00;99.90
14016;DHT22;7083;48.854;9.158;2022-12-07T01:45:31;3.00;99.90
14016;DHT22;7083;48.854;9.158;2022-12-07T01:48:00;3.00;99.90
14016;DHT22;7083;48.854;9.158;2022-12-07T01:50:28;3.00;99.90
14016;DHT22;7083;48.854;9.158;2022-12-07T01:52:58;3.10;99.90
14016;DHT22;7083;48.854;9.158;2022-12-07T01:55:26;3.10;99.90
14016;DHT22;7083;48.854;9.158;2022-12-07T01:57:54;3.10;99.90
14016;DHT22;7083;48.854;9.158;2022-12-07T02:00:22;3.10;99.90
14016;DHT22;7083;48.854;9.158;2022-12-07T02:02:53;3.10;99.90
14016;DHT22;7083;48.854;9.158;2022-12-07T02:05:20;3.10;99.90
14016;DHT22;7083;48.854;9.158;2022-12-07T02:07:49;3.10;99.90
14016;DHT22;7083;48.854;9.158;2022-12-07T02:10:19;3.10;99.90
14016;DHT22;7083;48.854;9.158;2022-12-07T02:12:50;3.10;99.90
14016;DHT22;7083;48.854;9.158;2022-12-07T02:15:21;3.10;99.90
14016;DHT22;7083;48.854;9.158;2022-12-07T02:17:54;3.10;99.90
14016;DHT22;7083;48.854;9.158;2022-12-07T02:20:27;3.10;99.90
14016;DHT22;7083;48.854;9.158;2022-12-07T02:23:11;3.10;99.90
14016;DHT22;7083;48.854;9.158;2022-12-07T02:25:58;3.10;99.90
14016;DHT22;7083;48.854;9.158;2022-12-07T02:28:32;3.10;99.90
14016;DHT22;7083;48.854;9.158;2022-12-07T02:31:05;3.10;99.90
14016;DHT22;7083;48.854;9.158;2022-12-07T02:33:36;3.00;99.90
14016;DHT22;7083;48.854;9.158;2022-12-07T02:36:08;3.00;99.90
14016;DHT22;7083;48.854;9.158;2022-12-07T02:38:39;3.00;99.90
14016;DHT22;7083;48.854;9.158;2022-12-07T02:41:12;3.00;99.90
14016;DHT22;7083;48.854;9.158;2022-12-07T02:43:42;3.00;99.90
14016;DHT22;7083;48.854;9.158;2022-12-07T02:46:16;3.00;99.90
14016;DHT22;7083;48.854;9.158;2022-12-07T02:48:45;3.00;99.90
14016;DHT22;7083;48.854;9.158;2022-12-07T02:51:12;2.90;99.90
14016;DHT22;7083;48.854;9.158;2022-12-07T02:53:41;3.00;99.90
14016;DHT22;7083;48.854;9.158;2022-12-07T02:56:27;3.00;99.90
14016;DHT22;7083;48.854;9.158;2022-12-07T02:59:02;3.00;99.90
14016;DHT22;7083;48.854;9.158;2022-12-07T03:01:39;3.00;99.90
14016;DHT22;7083;48.854;9.158;2022-12-07T03:04:19;3.00;99.90
14016;DHT22;7083;48.854;9.158;2022-12-07T03:06:56;3.00;99.90
14016;DHT22;7083;48.854;9.158;2022-12-07T03:09:32;3.00;99.90
14016;DHT22;7083;48.854;9.158;2022-12-07T03:12:08;3.00;99.90
14016;DHT22;7083;48.854;9.158;2022-12-07T03:14:44;3.20;99.90
14016;DHT22;7083;48.854;9.158;2022-12-07T03:17:15;2.90;99.90
14016;DHT22;7083;48.854;9.158;2022-12-07T03:19:44;2.90;99.90
14016;DHT22;7083;48.854;9.158;2022-12-07T03:22:18;2.90;99.90
14016;DHT22;7083;48.854;9.158;2022-12-07T03:25:00;2.90;99.90
14016;DHT22;7083;48.854;9.158;2022-12-07T03:27:31;2.90;99.90
14016;DHT22;7083;48.854;9.158;2022-12-07T03:30:02;2.80;99.90
14016;DHT22;7083;48.854;9.158;2022-12-07T03:32:34;2.80;99.90
14016;DHT22;7083;48.854;9.158;2022-12-07T03:35:09;2.80;99.90
14016;DHT22;7083;48.854;9.158;2022-12-07T03:37:44;3.10;99.90
14016;DHT22;7083;48.854;9.158;2022-12-07T03:40:17;2.70;99.90
14016;DHT22;7083;48.854;9.158;2022-12-07T03:42:51;2.60;99.90
14016;DHT22;7083;48.854;9.158;2022-12-07T03:45:32;2.60;99.90
14016;DHT22;7083;48.854;9.158;2022-12-07T03:48:07;2.60;99.90
14016;DHT22;7083;48.854;9.158;2022-12-07T03:50:46;2.60;99.90
14016;DHT22;7083;48.854;9.158;2022-12-07T03:53:20;2.50;99.90
14016;DHT22;7083;48.854;9.158;2022-12-07T03:55:49;2.40;99.90
14016;DHT22;7083;48.854;9.158;2022-12-07T03:58:23;2.30;99.90
14016;DHT22;7083;48.854;9.158;2022-12-07T04:00:51;2.20;99.90
14016;DHT22;7083;48.854;9.158;2022-12-07T04:03:19;2.20;99.90
14016;DHT22;7083;48.854;9.158;2022-12-07T04:05:49;2.10;99.90
14016;DHT22;7083;48.854;9.158;2022-12-07T04:08:17;2.00;99.90
14016;DHT22;7083;48.854;9.158;2022-12-07T04:10:44;2.10;99.90
14016;DHT22;7083;48.854;9.158;2022-12-07T04:13:11;2.00;99.90
14016;DHT22;7083;48.854;9.158;2022-12-07T04:15:37;1.90;99.90
14016;DHT22;7083;48.854;9.158;2022-12-07T04:18:04;1.90;99.90
14016;DHT22;7083;48.854;9.158;2022-12-07T04:20:32;1.80;99.90
14016;DHT22;7083;48.854;9.158;2022-12-07T04:22:59;1.80;99.90
14016;DHT22;7083;48.854;9.158;2022-12-07T04:25:25;1.80;99.90
14016;DHT22;7083;48.854;9.158;2022-12-07T04:27:52;1.90;99.90
14016;DHT22;7083;48.854;9.158;2022-12-07T04:30:19;1.90;99.90
14016;DHT22;7083;48.854;9.158;2022-12-07T04:32:46;2.00;99.90
14016;DHT22;7083;48.854;9.158;2022-12-07T04:35:12;2.00;99.90
14016;DHT22;7083;48.854;9.158;2022-12-07T04:37:40;2.10;99.90
14016;DHT22;7083;48.854;9.158;2022-12-07T04:40:08;2.10;99.90
14016;DHT22;7083;48.854;9.158;2022-12-07T04:42:36;2.20;99.90
14016;DHT22;7083;48.854;9.158;2022-12-07T04:45:03;2.20;99.90
14016;DHT22;7083;48.854;9.158;2022-12-07T04:47:30;2.20;99.90
14016;DHT22;7083;48.854;9.158;2022-12-07T04:49:57;2.20;99.90
14016;DHT22;7083;48.854;9.158;2022-12-07T04:52:25;2.20;99.90
14016;DHT22;7083;48.854;9.158;2022-12-07T04:54:54;2.20;99.90
14016;DHT22;7083;48.854;9.158;2022-12-07T04:57:20;2.20;99.90
14016;DHT22;7083;48.854;9.158;2022-12-07T04:59:47;2.20;99.90
14016;DHT22;7083;48.854;9.158;2022-12-07T05:02:22;2.20;99.90
14016;DHT22;7083;48.854;9.158;2022-12-07T05:04:49;2.20;99.90
14016;DHT22;7083;48.854;9.158;2022-12-07T05:07:16;2.20;99.90
14016;DHT22;7083;48.854;9.158;2022-12-07T05:09:43;2.30;99.90
14016;DHT22;7083;48.854;9.158;2022-12-07T05:12:11;2.30;99.90
14016;DHT22;7083;48.854;9.158;2022-12-07T05:14:37;2.30;99.90
14016;DHT22;7083;48.854;9.158;2022-12-07T05:17:04;2.30;99.90
14016;DHT22;7083;48.854;9.158;2022-12-07T05:19:31;2.20;99.90
14016;DHT22;7083;48.854;9.158;2022-12-07T05:21:58;2.10;99.90
14016;DHT22;7083;48.854;9.158;2022-12-07T05:24:24;2.00;99.90
14016;DHT22;7083;48.854;9.158;2022-12-07T05:27:00;2.00;99.90
14016;DHT22;7083;48.854;9.158;2022-12-07T05:29:58;1.90;99.90
14016;DHT22;7083;48.854;9.158;2022-12-07T05:32:25;1.80;99.90
14016;DHT22;7083;48.854;9.158;2022-12-07T05:34:51;1.80;99.90
14016;DHT22;7083;48.854;9.158;2022-12-07T05:37:23;1.70;99.90
14016;DHT22;7083;48.854;9.158;2022-12-07T05:39:57;1.70;99.90
14016;DHT22;7083;48.854;9.158;2022-12-07T05:42:24;1.60;99.90
14016;DHT22;7083;48.854;9.158;2022-12-07T05:45:07;1.70;99.90
14016;DHT22;7083;48.854;9.158;2022-12-07T05:47:35;1.70;99.90
14016;DHT22;7083;48.854;9.158;2022-12-07T05:50:04;1.70;99.90
14016;DHT22;7083;48.854;9.158;2022-12-07T05:52:31;1.80;99.90
14016;DHT22;7083;48.854;9.158;2022-12-07T05:55:09;1.80;99.90
14016;DHT22;7083;48.854;9.158;2022-12-07T05:57:36;1.90;99.90
14016;DHT22;7083;48.854;9.158;2022-12-07T06:00:06;1.90;99.90
14016;DHT22;7083;48.854;9.158;2022-12-07T06:02:31;2.00;99.90
14016;DHT22;7083;48.854;9.158;2022-12-07T06:04:58;2.00;99.90
14016;DHT22;7083;48.854;9.158;2022-12-07T06:07:25;2.00;99.90
14016;DHT22;7083;48.854;9.158;2022-12-07T06:09:51;2.00;99.90
14016;DHT22;7083;48.854;9.158;2022-12-07T06:12:21;2.00;99.90
14016;DHT22;7083;48.854;9.158;2022-12-07T06:14:59;2.00;99.90
14016;DHT22;7083;48.854;9.158;2022-12-07T06:17:27;2.00;99.90
14016;DHT22;7083;48.854;9.158;2022-12-07T06:19:54;2.00;99.90
14016;DHT22;7083;48.854;9.158;2022-12-07T06:22:20;2.00;99.90
14016;DHT22;7083;48.854;9.158;2022-12-07T06:24:47;2.00;99.90
14016;DHT22;7083;48.854;9.158;2022-12-07T06:27:14;2.00;99.90
14016;DHT22;7083;48.854;9.158;2022-12-07T06:29:41;2.10;99.90
14016;DHT22;7083;48.854;9.158;2022-12-07T06:32:07;2.10;99.90
14016;DHT22;7083;48.854;9.158;2022-12-07T06:34:36;2.00;99.90
14016;DHT22;7083;48.854;9.158;2022-12-07T06:37:03;2.10;99.90
14016;DHT22;7083;48.854;9.158;2022-12-07T06:39:29;2.00;99.90
14016;DHT22;7083;48.854;9.158;2022-12-07T06:41:57;2.00;99.90
14016;DHT22;7083;48.854;9.158;2022-12-07T06:44:24;2.00;99.90
14016;DHT22;7083;48.854;9.158;2022-12-07T06:46:51;2.00;99.90
14016;DHT22;7083;48.854;9.158;2022-12-07T06:49:18;2.00;99.90
14016;DHT22;7083;48.854;9.158;2022-12-07T06:51:46;2.00;99.90
14016;DHT22;7083;48.854;9.158;2022-12-07T06:54:14;2.00;99.90
14016;DHT22;7083;48.854;9.158;2022-12-07T06:56:41;2.00;99.90
14016;DHT22;7083;48.854;9.158;2022-12-07T06:59:08;2.00;99.90
14016;DHT22;7083;48.854;9.158;2022-12-07T07:01:36;2.00;99.90
14016;DHT22;7083;48.854;9.158;2022-12-07T07:04:03;2.10;99.90
14016;DHT22;7083;48.854;9.158;2022-12-07T07:06:30;2.10;99.90
14016;DHT22;7083;48.854;9.158;2022-12-07T07:08:58;2.10;99.90
14016;DHT22;7083;48.854;9.158;2022-12-07T07:11:25;2.10;99.90
14016;DHT22;7083;48.854;9.158;2022-12-07T07:13:52;2.20;99.90
14016;DHT22;7083;48.854;9.158;2022-12-07T07:16:19;2.20;99.90
14016;DHT22;7083;48.854;9.158;2022-12-07T07:18:45;2.20;99.90
14016;DHT22;7083;48.854;9.158;2022-12-07T07:21:12;2.20;99.90
14016;DHT22;7083;48.854;9.158;2022-12-07T07:23:39;2.30;99.90
14016;DHT22;7083;48.854;9.158;2022-12-07T07:26:07;2.30;99.90
14016;DHT22;7083;48.854;9.158;2022-12-07T07:28:34;2.30;99.90
14016;DHT22;7083;48.854;9.158;2022-12-07T07:31:00;2.30;99.90
14016;DHT22;7083;48.854;9.158;2022-12-07T07:33:27;2.40;99.90
14016;DHT22;7083;48.854;9.158;2022-12-07T07:35:54;2.40;99.90
14016;DHT22;7083;48.854;9.158;2022-12-07T07:38:20;2.40;99.90
14016;DHT22;7083;48.854;9.158;2022-12-07T07:40:47;2.50;99.90
14016;DHT22;7083;48.854;9.158;2022-12-07T07:43:15;2.50;99.90
14016;DHT22;7083;48.854;9.158;2022-12-07T07:45:42;2.50;99.90
14016;DHT22;7083;48.854;9.158;2022-12-07T07:48:09;2.60;99.90
14016;DHT22;7083;48.854;9.158;2022-12-07T07:50:35;2.60;99.90
14016;DHT22;7083;48.854;9.158;2022-12-07T07:53:02;2.60;99.90
14016;DHT22;7083;48.854;9.158;2022-12-07T07:55:29;2.70;99.90
14016;DHT22;7083;48.854;9.158;2022-12-07T07:57:55;2.70;99.90
14016;DHT22;7083;48.854;9.158;2022-12-07T08:00:24;2.80;99.90
14016;DHT22;7083;48.854;9.158;2022-12-07T08:02:50;2.80;99.90
14016;DHT22;7083;48.854;9.158;2022-12-07T08:05:17;2.80;99.90
14016;DHT22;7083;48.854;9.158;2022-12-07T08:07:44;2.90;99.90
14016;DHT22;7083;48.854;9.158;2022-12-07T08:10:12;2.90;99.90
14016;DHT22;7083;48.854;9.158;2022-12-07T08:12:41;2.90;99.90
14016;DHT22;7083;48.854;9.158;2022-12-07T08:15:23;3.00;99.90
14016;DHT22;7083;48.854;9.158;2022-12-07T08:17:50;3.10;99.90
14016;DHT22;7083;48.854;9.158;2022-12-07T08:20:16;3.10;99.90
14016;DHT22;7083;48.854;9.158;2022-12-07T08:22:43;3.20;99.90
14016;DHT22;7083;48.854;9.158;2022-12-07T08:25:10;3.30;99.90
14016;DHT22;7083;48.854;9.158;2022-12-07T08:27:37;3.30;99.90
14016;DHT22;7083;48.854;9.158;2022-12-07T08:30:04;3.30;99.90
14016;DHT22;7083;48.854;9.158;2022-12-07T08:32:33;3.40;99.90
14016;DHT22;7083;48.854;9.158;2022-12-07T08:34:59;3.50;99.90
14016;DHT22;7083;48.854;9.158;2022-12-07T08:37:26;3.50;99.90
14016;DHT22;7083;48.854;9.158;2022-12-07T08:39:53;3.60;99.90
14016;DHT22;7083;48.854;9.158;2022-12-07T08:42:19;3.70;99.90
14016;DHT22;7083;48.854;9.158;2022-12-07T08:44:48;3.70;99.90
14016;DHT22;7083;48.854;9.158;2022-12-07T08:47:15;3.80;99.90
14016;DHT22;7083;48.854;9.158;2022-12-07T08:49:45;3.80;99.90
14016;DHT22;7083;48.854;9.158;2022-12-07T08:52:13;3.90;99.90
14016;DHT22;7083;48.854;9.158;2022-12-07T08:54:40;3.90;99.90
14016;DHT22;7083;48.854;9.158;2022-12-07T08:57:08;4.00;99.90
14016;DHT22;7083;48.854;9.158;2022-12-07T08:59:36;4.00;99.90
14016;DHT22;7083;48.854;9.158;2022-12-07T09:02:03;4.10;99.90
14016;DHT22;7083;48.854;9.158;2022-12-07T09:04:30;4.10;99.90
14016;DHT22;7083;48.854;9.158;2022-12-07T09:06:59;4.10;99.90
14016;DHT22;7083;48.854;9.158;2022-12-07T09:09:25;4.20;99.90
14016;DHT22;7083;48.854;9.158;2022-12-07T09:11:52;4.30;99.90
14016;DHT22;7083;48.854;9.158;2022-12-07T09:14:19;4.40;99.90
14016;DHT22;7083;48.854;9.158;2022-12-07T09:16:45;4.40;99.90
14016;DHT22;7083;48.854;9.158;2022-12-07T09:19:12;4.50;99.90
14016;DHT22;7083;48.854;9.158;2022-12-07T09:21:39;4.60;99.90
14016;DHT22;7083;48.854;9.158;2022-12-07T09:24:07;4.70;99.90
14016;DHT22;7083;48.854;9.158;2022-12-07T09:26:34;4.80;99.90
14016;DHT22;7083;48.854;9.158;2022-12-07T09:29:02;4.80;99.90
14016;DHT22;7083;48.854;9.158;2022-12-07T09:31:29;5.00;99.90
14016;DHT22;7083;48.854;9.158;2022-12-07T09:33:56;5.00;99.90
14016;DHT22;7083;48.854;9.158;2022-12-07T09:36:24;5.10;99.90
14016;DHT22;7083;48.854;9.158;2022-12-07T09:38:51;5.10;99.90
14016;DHT22;7083;48.854;9.158;2022-12-07T09:41:19;5.20;99.90
14016;DHT22;7083;48.854;9.158;2022-12-07T09:43:47;5.20;99.90
14016;DHT22;7083;48.854;9.158;2022-12-07T09:46:16;5.30;99.90
14016;DHT22;7083;48.854;9.158;2022-12-07T09:48:44;5.30;99.90
14016;DHT22;7083;48.854;9.158;2022-12-07T09:51:15;5.40;99.90
14016;DHT22;7083;48.854;9.158;2022-12-07T09:53:43;5.50;99.90
14016;DHT22;7083;48.854;9.158;2022-12-07T09:56:11;5.50;99.90
14016;DHT22;7083;48.854;9.158;2022-12-07T09:58:41;5.60;99.90
14016;DHT22;7083;48.854;9.158;2022-12-07T10:01:12;5.70;99.90
14016;DHT22;7083;48.854;9.158;2022-12-07T10:03:42;5.70;99.90
14016;DHT22;7083;48.854;9.158;2022-12-07T10:06:12;5.70;99.90
14016;DHT22;7083;48.854;9.158;2022-12-07T10:08:39;5.70;99.90
14016;DHT22;7083;48.854;9.158;2022-12-07T10:11:08;5.70;99.90
14016;DHT22;7083;48.854;9.158;2022-12-07T10:13:37;5.70;99.90
14016;DHT22;7083;48.854;9.158;2022-12-07T10:16:06;5.80;99.90
14016;DHT22;7083;48.854;9.158;2022-12-07T10:18:53;5.80;99.90
14016;DHT22;7083;48.854;9.158;2022-12-07T10:21:21;5.70;99.90
14016;DHT22;7083;48.854;9.158;2022-12-07T10:24:00;5.70;99.90
14016;DHT22;7083;48.854;9.158;2022-12-07T10:26:30;5.80;99.90
14016;DHT22;7083;48.854;9.158;2022-12-07T10:28:59;5.80;99.90
14016;DHT22;7083;48.854;9.158;2022-12-07T10:31:28;5.70;99.90
14016;DHT22;7083;48.854;9.158;2022-12-07T10:33:57;5.80;99.90
14016;DHT22;7083;48.854;9.158;2022-12-07T10:36:26;5.70;99.90
14016;DHT22;7083;48.854;9.158;2022-12-07T10:38:59;5.70;99.90
14016;DHT22;7083;48.854;9.158;2022-12-07T10:41:26;5.70;99.90
14016;DHT22;7083;48.854;9.158;2022-12-07T10:43:54;5.70;99.90
14016;DHT22;7083;48.854;9.158;2022-12-07T10:46:39;5.70;99.90
14016;DHT22;7083;48.854;9.158;2022-12-07T10:52:08;5.80;99.90
14016;DHT22;7083;48.854;9.158;2022-12-07T10:54:47;5.80;99.90
14016;DHT22;7083;48.854;9.158;2022-12-07T10:57:26;5.80;99.90
14016;DHT22;7083;48.854;9.158;2022-12-07T11:00:04;5.90;99.90
14016;DHT22;7083;48.854;9.158;2022-12-07T11:03:03;5.80;99.90
14016;DHT22;7083;48.854;9.158;2022-12-07T11:05:39;5.80;99.90
14016;DHT22;7083;48.854;9.158;2022-12-07T11:08:18;5.80;99.90
14016;DHT22;7083;48.854;9.158;2022-12-07T11:10:52;5.80;99.90
14016;DHT22;7083;48.854;9.158;2022-12-07T11:13:29;5.80;99.90
14016;DHT22;7083;48.854;9.158;2022-12-07T11:16:19;5.80;99.90
14016;DHT22;7083;48.854;9.158;2022-12-07T11:19:03;5.70;99.90
14016;DHT22;7083;48.854;9.158;2022-12-07T11:21:39;5.70;99.90
14016;DHT22;7083;48.854;9.158;2022-12-07T11:24:15;5.70;99.90
14016;DHT22;7083;48.854;9.158;2022-12-07T11:26:52;5.70;99.90
14016;DHT22;7083;48.854;9.158;2022-12-07T11:29:43;5.50;99.90
14016;DHT22;7083;48.854;9.158;2022-12-07T11:32:16;5.50;99.90
14016;DHT22;7083;48.854;9.158;2022-12-07T11:34:55;5.50;99.90
14016;DHT22;7083;48.854;9.158;2022-12-07T11:37:30;5.40;99.90
14016;DHT22;7083;48.854;9.158;2022-12-07T11:40:01;5.30;99.90
14016;DHT22;7083;48.854;9.158;2022-12-07T11:42:31;5.20;99.90
14016;DHT22;7083;48.854;9.158;2022-12-07T11:45:04;5.20;99.90
14016;DHT22;7083;48.854;9.158;2022-12-07T11:47:41;5.20;99.90
14016;DHT22;7083;48.854;9.158;2022-12-07T11:50:24;5.10;99.90
14016;DHT22;7083;48.854;9.158;2022-12-07T11:52:54;5.10;99.90
14016;DHT22;7083;48.854;9.158;2022-12-07T11:55:28;5.10;99.90
14016;DHT22;7083;48.854;9.158;2022-12-07T11:58:03;5.20;99.90
14016;DHT22;7083;48.854;9.158;2022-12-07T12:00:30;5.20;99.90
14016;DHT22;7083;48.854;9.158;2022-12-07T12:03:01;5.30;99.90
14016;DHT22;7083;48.854;9.158;2022-12-07T12:05:29;5.30;99.90
14016;DHT22;7083;48.854;9.158;2022-12-07T12:08:03;5.30;99.90
14016;DHT22;7083;48.854;9.158;2022-12-07T12:10:40;5.40;99.90
14016;DHT22;7083;48.854;9.158;2022-12-07T12:13:56;5.40;99.90
14016;DHT22;7083;48.854;9.158;2022-12-07T12:19:33;5.40;99.90
14016;DHT22;7083;48.854;9.158;2022-12-07T12:22:09;5.30;99.90
14016;DHT22;7083;48.854;9.158;2022-12-07T12:24:37;5.30;99.90
14016;DHT22;7083;48.854;9.158;2022-12-07T12:27:08;5.30;99.90
14016;DHT22;7083;48.854;9.158;2022-12-07T12:29:38;5.30;99.90
14016;DHT22;7083;48.854;9.158;2022-12-07T12:32:12;5.40;99.90
14016;DHT22;7083;48.854;9.158;2022-12-07T12:34:42;5.50;99.90
14016;DHT22;7083;48.854;9.158;2022-12-07T12:37:46;5.50;99.90
14016;DHT22;7083;48.854;9.158;2022-12-07T12:40:38;5.40;99.90
14016;DHT22;7083;48.854;9.158;2022-12-07T12:43:42;5.30;99.90
14016;DHT22;7083;48.854;9.158;2022-12-07T12:46:37;5.20;99.90
14016;DHT22;7083;48.854;9.158;2022-12-07T12:55:15;5.10;99.90
14016;DHT22;7083;48.854;9.158;2022-12-07T12:57:45;5.10;99.90
14016;DHT22;7083;48.854;9.158;2022-12-07T13:00:17;5.10;99.90
14016;DHT22;7083;48.854;9.158;2022-12-07T13:02:48;5.20;99.90
14016;DHT22;7083;48.854;9.158;2022-12-07T13:05:18;5.20;99.90
14016;DHT22;7083;48.854;9.158;2022-12-07T13:08:04;5.20;99.90
14016;DHT22;7083;48.854;9.158;2022-12-07T13:10:43;5.10;99.90
14016;DHT22;7083;48.854;9.158;2022-12-07T13:13:34;5.10;99.90
14016;DHT22;7083;48.854;9.158;2022-12-07T13:16:38;5.10;99.90
14016;DHT22;7083;48.854;9.158;2022-12-07T13:22:46;5.10;99.90
14016;DHT22;7083;48.854;9.158;2022-12-07T13:25:38;5.20;99.90
14016;DHT22;7083;48.854;9.158;2022-12-07T13:28:15;5.20;99.90
14016;DHT22;7083;48.854;9.158;2022-12-07T13:30:47;5.20;99.90
14016;DHT22;7083;48.854;9.158;2022-12-07T13:33:17;5.10;99.90
14016;DHT22;7083;48.854;9.158;2022-12-07T13:35:45;5.10;99.90
14016;DHT22;7083;48.854;9.158;2022-12-07T13:38:23;5.00;99.90
14016;DHT22;7083;48.854;9.158;2022-12-07T13:41:11;5.10;99.90
14016;DHT22;7083;48.854;9.158;2022-12-07T13:43:50;5.10;99.90
14016;DHT22;7083;48.854;9.158;2022-12-07T13:46:18;5.00;99.90
14016;DHT22;7083;48.854;9.158;2022-12-07T13:48:48;5.00;99.90
14016;DHT22;7083;48.854;9.158;2022-12-07T13:51:19;5.00;99.90
14016;DHT22;7083;48.854;9.158;2022-12-07T13:53:47;5.00;99.90
14016;DHT22;7083;48.854;9.158;2022-12-07T13:56:15;5.10;99.90
14016;DHT22;7083;48.854;9.158;2022-12-07T13:58:42;5.10;99.90
14016;DHT22;7083;48.854;9.158;2022-12-07T14:01:10;5.10;99.90
14016;DHT22;7083;48.854;9.158;2022-12-07T14:03:39;5.20;99.90
14016;DHT22;7083;48.854;9.158;2022-12-07T14:06:29;5.30;99.90
14016;DHT22;7083;48.854;9.158;2022-12-07T14:09:14;5.30;99.90
14016;DHT22;7083;48.854;9.158;2022-12-07T14:11:43;5.30;99.90
14016;DHT22;7083;48.854;9.158;2022-12-07T14:14:12;5.30;99.90
14016;DHT22;7083;48.854;9.158;2022-12-07T14:16:41;5.30;99.90
14016;DHT22;7083;48.854;9.158;2022-12-07T14:19:40;5.20;99.90
14016;DHT22;7083;48.854;9.158;2022-12-07T14:22:08;5.20;99.90
14016;DHT22;7083;48.854;9.158;2022-12-07T14:24:41;5.20;99.90
14016;DHT22;7083;48.854;9.158;2022-12-07T14:27:17;5.20;99.90
14016;DHT22;7083;48.854;9.158;2022-12-07T14:29:45;5.20;99.90
14016;DHT22;7083;48.854;9.158;2022-12-07T14:32:22;5.20;99.90
14016;DHT22;7083;48.854;9.158;2022-12-07T14:34:54;5.10;99.90
14016;DHT22;7083;48.854;9.158;2022-12-07T14:37:21;5.70;99.90
14016;DHT22;7083;48.854;9.158;2022-12-07T14:39:48;5.00;99.90
14016;DHT22;7083;48.854;9.158;2022-12-07T14:42:15;5.00;99.90
14016;DHT22;7083;48.854;9.158;2022-12-07T14:44:41;5.00;99.90
14016;DHT22;7083;48.854;9.158;2022-12-07T14:47:09;5.00;99.90
14016;DHT22;7083;48.854;9.158;2022-12-07T14:49:37;4.90;99.90
14016;DHT22;7083;48.854;9.158;2022-12-07T14:52:04;4.90;99.90
14016;DHT22;7083;48.854;9.158;2022-12-07T14:54:32;4.80;99.90
14016;DHT22;7083;48.854;9.158;2022-12-07T14:56:59;4.80;99.90
14016;DHT22;7083;48.854;9.158;2022-12-07T14:59:26;4.70;99.90
14016;DHT22;7083;48.854;9.158;2022-12-07T15:01:53;4.70;99.90
14016;DHT22;7083;48.854;9.158;2022-12-07T15:04:19;4.70;99.90
14016;DHT22;7083;48.854;9.158;2022-12-07T15:06:56;4.60;99.90
14016;DHT22;7083;48.854;9.158;2022-12-07T15:09:22;4.60;99.90
14016;DHT22;7083;48.854;9.158;2022-12-07T15:11:49;4.50;99.90
14016;DHT22;7083;48.854;9.158;2022-12-07T15:14:16;4.40;99.90
14016;DHT22;7083;48.854;9.158;2022-12-07T15:16:43;4.40;99.90
14016;DHT22;7083;48.854;9.158;2022-12-07T15:19:12;4.40;99.90
14016;DHT22;7083;48.854;9.158;2022-12-07T15:21:40;4.40;99.90
14016;DHT22;7083;48.854;9.158;2022-12-07T15:24:09;4.40;99.90
14016;DHT22;7083;48.854;9.158;2022-12-07T15:26:37;4.30;99.90
14016;DHT22;7083;48.854;9.158;2022-12-07T15:29:04;4.30;99.90
14016;DHT22;7083;48.854;9.158;2022-12-07T15:31:31;4.20;99.90
14016;DHT22;7083;48.854;9.158;2022-12-07T15:33:58;4.20;99.90
14016;DHT22;7083;48.854;9.158;2022-12-07T15:36:27;4.20;99.90
14016;DHT22;7083;48.854;9.158;2022-12-07T15:38:55;4.10;99.90
14016;DHT22;7083;48.854;9.158;2022-12-07T15:41:24;4.00;99.90
14016;DHT22;7083;48.854;9.158;2022-12-07T15:43:50;3.90;99.90
14016;DHT22;7083;48.854;9.158;2022-12-07T15:46:36;3.80;99.90
14016;DHT22;7083;48.854;9.158;2022-12-07T15:49:04;3.80;99.90
14016;DHT22;7083;48.854;9.158;2022-12-07T15:51:30;3.70;99.90
14016;DHT22;7083;48.854;9.158;2022-12-07T15:53:57;3.70;99.90
14016;DHT22;7083;48.854;9.158;2022-12-07T15:56:26;3.70;99.90
14016;DHT22;7083;48.854;9.158;2022-12-07T15:58:52;3.60;99.90
14016;DHT22;7083;48.854;9.158;2022-12-07T16:01:19;3.60;99.90
14016;DHT22;7083;48.854;9.158;2022-12-07T16:03:47;3.60;99.90
14016;DHT22;7083;48.854;9.158;2022-12-07T16:06:15;3.50;99.90
14016;DHT22;7083;48.854;9.158;2022-12-07T16:08:43;3.50;99.90
14016;DHT22;7083;48.854;9.158;2022-12-07T16:11:10;3.40;99.90
14016;DHT22;7083;48.854;9.158;2022-12-07T16:13:38;3.40;99.90
14016;DHT22;7083;48.854;9.158;2022-12-07T16:16:07;3.30;99.90
14016;DHT22;7083;48.854;9.158;2022-12-07T16:18:34;3.20;99.90
14016;DHT22;7083;48.854;9.158;2022-12-07T16:21:00;3.10;99.90
14016;DHT22;7083;48.854;9.158;2022-12-07T16:23:27;3.00;99.90
14016;DHT22;7083;48.854;9.158;2022-12-07T16:25:54;3.00;99.90
14016;DHT22;7083;48.854;9.158;2022-12-07T16:28:21;2.90;99.90
14016;DHT22;7083;48.854;9.158;2022-12-07T16:31:00;2.90;99.90
14016;DHT22;7083;48.854;9.158;2022-12-07T16:33:26;2.80;99.90
14016;DHT22;7083;48.854;9.158;2022-12-07T16:35:53;2.70;99.90
14016;DHT22;7083;48.854;9.158;2022-12-07T16:38:20;2.70;99.90
14016;DHT22;7083;48.854;9.158;2022-12-07T16:40:47;2.60;99.90